Caressa K — WBP4760 — position and weather

sailwx.info

Track history (hours):
 
Tides and Currents Weather Stations Pressure Air Temp Water Temp Dewpoint Dewpoint Depression Visibility Wind Speed Wind Dir Waves Ship Positions

Caressa K

Owner: The Tug Caressa K, L.L.C., SUGAR LAND, TX. More information available from US FCC via Universal Licensing System and Coast Guard Vessel Documentation Center.

Last reported at 2018-Jan-11 04:09 UTC. Time now 2018-Jan-18 17:29 UTC.
Position N 29°44' W 095°04'.

Length 20 m.

Type: Towing. MMSI: 366986680.

Date/timePositionNaut miles runAvg speedWind from/ knotsBaromVisibWave heightAir tempDewpointWater temp
2018-Jan-11 04:09N 29°44' W 095°04'2 4.8
2018-Jan-11 03:39N 29°43' W 095°01'1 5.2
2018-Jan-11 03:30N 29°42' W 095°01'3 5.3
2018-Jan-11 03:00N 29°41' W 094°59'3 5.8
2018-Jan-11 02:29N 29°38' W 094°58'3 5.3
2018-Jan-11 02:00N 29°35' W 094°56'3 5.9
2018-Jan-11 01:31N 29°33' W 094°54'  
2018-Jan-07 14:14N 29°33' W 094°55'1 6.6
2018-Jan-07 14:00N 29°34' W 094°56'3 6.7
2018-Jan-07 13:30N 29°37' W 094°58'3 6.9
2018-Jan-07 13:00N 29°41' W 094°59'9 0.3
2018-Jan-06 07:13N 29°48' W 095°04'  
Track history (hours):
 
Tides and Currents Weather Stations Pressure Air Temp Water Temp Dewpoint Dewpoint Depression Visibility Wind Speed Wind Dir Waves Ship Positions

Caressa K

Owner: The Tug Caressa K, L.L.C., SUGAR LAND, TX. More information available from US FCC via Universal Licensing System and Coast Guard Vessel Documentation Center.

Last reported at 2018-Jan-11 04:09 UTC. Time now 2018-Jan-18 17:29 UTC.
Position N 29°44' W 095°04'.

Length 20 m.

Type: Towing. MMSI: 366986680.

Date/timePositionNaut miles runAvg speedWind from/ knotsBaromVisibWave heightAir tempDewpointWater temp
2018-Jan-11 04:09N 29°44' W 095°04'2 4.8
2018-Jan-11 03:39N 29°43' W 095°01'1 5.2
2018-Jan-11 03:30N 29°42' W 095°01'3 5.3
2018-Jan-11 03:00N 29°41' W 094°59'3 5.8
2018-Jan-11 02:29N 29°38' W 094°58'3 5.3
2018-Jan-11 02:00N 29°35' W 094°56'3 5.9
2018-Jan-11 01:31N 29°33' W 094°54'  
2018-Jan-07 14:14N 29°33' W 094°55'1 6.6
2018-Jan-07 14:00N 29°34' W 094°56'3 6.7
2018-Jan-07 13:30N 29°37' W 094°58'3 6.9
2018-Jan-07 13:00N 29°41' W 094°59'9 0.3
2018-Jan-06 07:13N 29°48' W 095°04'  

Dump ship's entire track history